createdAt,value
2017-03-31T00:01:18.932Z,22.99
2017-03-31T00:02:15.958Z,23
2017-03-31T00:03:15.593Z,23
2017-03-31T00:04:15.462Z,22.98
2017-03-31T00:05:15.411Z,22.96
2017-03-31T00:06:15.336Z,22.99
2017-03-31T00:07:15.396Z,22.99
2017-03-31T00:08:15.213Z,23.03
2017-03-31T00:09:15.149Z,22.98
2017-03-31T00:10:15.096Z,22.99
2017-03-31T00:11:15.027Z,22.99
2017-03-31T00:12:14.966Z,22.94
2017-03-31T00:13:14.903Z,22.98
2017-03-31T00:14:14.532Z,22.98
2017-03-31T00:15:14.781Z,22.98
2017-03-31T00:16:14.867Z,23.02
2017-03-31T00:17:14.656Z,23.05
2017-03-31T00:18:14.287Z,22.99
2017-03-31T00:19:14.550Z,23
2017-03-31T00:20:14.477Z,23.05
2017-03-31T00:21:14.410Z,22.91
2017-03-31T00:22:14.353Z,23.02
2017-03-31T00:23:14.655Z,22.96
2017-03-31T00:24:14.599Z,22.99
2017-03-31T00:25:14.165Z,22.99
2017-03-31T00:26:14.102Z,22.99
2017-03-31T00:27:14.037Z,23.03
2017-03-31T00:28:13.669Z,22.98
2017-03-31T00:29:13.914Z,23
2017-03-31T00:30:13.854Z,23.02
2017-03-31T00:31:13.791Z,23
2017-03-31T00:32:13.731Z,22.94
2017-03-31T00:33:13.673Z,23.05
2017-03-31T00:34:13.608Z,23.05
2017-03-31T00:35:13.543Z,23.03
2017-03-31T00:36:13.487Z,22.98
2017-03-31T00:37:13.419Z,22.96
2017-03-31T00:38:13.358Z,22.94
2017-03-31T00:39:13.358Z,22.99
2017-03-31T00:40:13.236Z,22.99
2017-03-31T00:41:13.172Z,22.94
2017-03-31T00:42:13.112Z,22.91
2017-03-31T00:43:13.051Z,23.03
2017-03-31T00:44:12.682Z,22.99
2017-03-31T00:45:12.926Z,22.96
2017-03-31T00:46:12.867Z,22.93
2017-03-31T00:47:12.804Z,22.99
2017-03-31T00:48:12.741Z,22.93
2017-03-31T00:49:12.696Z,23
2017-03-31T00:50:12.618Z,23.05
2017-03-31T00:51:12.557Z,23.02
2017-03-31T00:52:12.494Z,22.9
2017-03-31T00:53:12.436Z,22.98
2017-03-31T00:54:12.369Z,23
2017-03-31T00:55:12.008Z,22.94
2017-03-31T00:56:12.273Z,22.94
2017-03-31T00:57:12.217Z,22.96
2017-03-31T00:58:12.166Z,22.98
2017-03-31T00:59:12.096Z,22.93
2017-03-31T01:00:11.999Z,22.9
2017-03-31T01:01:20.649Z,23
2017-03-31T01:02:11.878Z,22.98
2017-03-31T01:03:11.812Z,22.98
2017-03-31T01:04:11.758Z,22.98
2017-03-31T01:05:11.693Z,22.9
2017-03-31T01:06:11.627Z,23.03
2017-03-31T01:07:11.566Z,22.98
2017-03-31T01:08:11.505Z,22.96
2017-03-31T01:09:11.442Z,22.87
2017-03-31T01:10:11.070Z,22.94
2017-03-31T01:11:11.323Z,22.9
2017-03-31T01:12:11.259Z,22.96
2017-03-31T01:13:11.196Z,22.99
2017-03-31T01:14:11.145Z,22.98
2017-03-31T01:15:11.177Z,22.99
2017-03-31T01:16:11.010Z,22.94
2017-03-31T01:17:10.980Z,22.98
2017-03-31T01:18:10.888Z,22.98
2017-03-31T01:19:10.826Z,22.91
2017-03-31T01:20:10.764Z,22.94
2017-03-31T01:21:10.391Z,22.9
2017-03-31T01:22:10.676Z,22.98
2017-03-31T01:23:10.579Z,22.98
2017-03-31T01:24:10.521Z,22.98
2017-03-31T01:25:10.455Z,22.98
2017-03-31T01:26:10.396Z,22.98
2017-03-31T01:27:10.332Z,22.99
2017-03-31T01:28:10.276Z,22.98
2017-03-31T01:29:10.207Z,22.98
2017-03-31T01:30:10.150Z,22.93
2017-03-31T01:31:10.085Z,22.9
2017-03-31T01:32:10.025Z,23
2017-03-31T01:33:09.963Z,22.94
2017-03-31T01:34:09.899Z,22.94
2017-03-31T01:35:09.837Z,22.94
2017-03-31T01:36:09.776Z,22.94
2017-03-31T01:37:09.714Z,22.98
2017-03-31T01:38:09.650Z,22.94
2017-03-31T01:39:09.589Z,22.98
2017-03-31T01:40:09.528Z,22.93
2017-03-31T01:41:09.465Z,22.98
2017-03-31T01:42:09.406Z,22.94
2017-03-31T01:43:09.341Z,22.87
2017-03-31T01:44:08.966Z,22.88
2017-03-31T01:45:09.219Z,22.94
2017-03-31T01:46:09.155Z,22.88
2017-03-31T01:47:09.096Z,22.94
2017-03-31T01:48:09.035Z,22.96
2017-03-31T01:49:08.970Z,23
2017-03-31T01:50:08.598Z,22.93
2017-03-31T01:51:08.847Z,22.88
2017-03-31T01:52:08.788Z,22.88
2017-03-31T01:53:08.724Z,22.94
2017-03-31T01:54:08.670Z,22.93
2017-03-31T01:55:08.602Z,22.96
2017-03-31T01:56:08.542Z,22.91
2017-03-31T01:57:08.595Z,22.91
2017-03-31T01:58:08.414Z,22.99
2017-03-31T01:59:08.365Z,23
2017-03-31T02:00:08.102Z,22.87
2017-03-31T02:01:08.233Z,22.93
2017-03-31T02:02:07.869Z,22.98
2017-03-31T02:03:07.806Z,23
2017-03-31T02:04:08.217Z,22.93
2017-03-31T02:05:07.480Z,22.94
2017-03-31T02:06:07.922Z,22.87
2017-03-31T02:07:07.552Z,22.93
2017-03-31T02:08:07.797Z,23
2017-03-31T02:09:07.736Z,22.94
2017-03-31T02:10:07.677Z,22.93
2017-03-31T02:11:07.614Z,22.93
2017-03-31T02:12:07.567Z,22.96
2017-03-31T02:13:07.508Z,22.93
2017-03-31T02:14:07.429Z,22.98
2017-03-31T02:15:07.376Z,22.88
2017-03-31T02:16:06.996Z,22.94
2017-03-31T02:17:07.257Z,22.91
2017-03-31T02:18:07.188Z,22.91
2017-03-31T02:19:06.864Z,22.98
2017-03-31T02:20:07.064Z,22.91
2017-03-31T02:21:06.997Z,22.9
2017-03-31T02:22:06.944Z,22.94
2017-03-31T02:23:06.578Z,22.96
2017-03-31T02:24:06.829Z,22.98
2017-03-31T02:25:06.767Z,22.91
2017-03-31T02:26:06.697Z,22.93
2017-03-31T02:27:06.624Z,22.91
2017-03-31T02:28:06.569Z,22.93
2017-03-31T02:29:06.518Z,22.94
2017-03-31T02:30:06.137Z,22.85
2017-03-31T02:31:06.391Z,22.87
2017-03-31T02:32:06.017Z,22.87
2017-03-31T02:33:06.279Z,22.93
2017-03-31T02:34:06.190Z,22.98
2017-03-31T02:35:05.817Z,23
2017-03-31T02:36:06.069Z,22.91
2017-03-31T02:37:06.110Z,22.87
2017-03-31T02:38:05.948Z,22.98
2017-03-31T02:39:05.881Z,22.9
2017-03-31T02:40:05.967Z,22.88
2017-03-31T02:41:05.757Z,22.96
2017-03-31T02:42:05.699Z,22.91
2017-03-31T02:43:05.713Z,22.84
2017-03-31T02:44:05.574Z,22.94
2017-03-31T02:45:05.509Z,22.96
2017-03-31T02:46:05.450Z,22.94
2017-03-31T02:47:05.387Z,22.84
2017-03-31T02:48:05.330Z,22.93
2017-03-31T02:49:05.261Z,22.91
2017-03-31T02:50:05.200Z,22.9
2017-03-31T02:51:05.139Z,22.9
2017-03-31T02:52:04.767Z,22.98
2017-03-31T02:53:05.028Z,22.93
2017-03-31T02:54:04.956Z,22.96
2017-03-31T02:55:04.893Z,22.91
2017-03-31T02:56:04.831Z,22.94
2017-03-31T02:57:04.768Z,22.93
2017-03-31T02:58:04.704Z,22.98
2017-03-31T02:59:04.644Z,22.91
2017-03-31T03:00:04.581Z,22.88
2017-03-31T03:01:04.212Z,22.98
2017-03-31T03:02:04.459Z,22.93
2017-03-31T03:03:04.398Z,22.98
2017-03-31T03:04:04.021Z,22.94
2017-03-31T03:05:04.404Z,22.87
2017-03-31T03:06:03.898Z,22.98
2017-03-31T03:07:03.837Z,22.91
2017-03-31T03:08:04.086Z,22.98
2017-03-31T03:09:03.714Z,22.98
2017-03-31T03:10:03.962Z,22.96
2017-03-31T03:11:03.902Z,22.94
2017-03-31T03:12:03.845Z,22.99
2017-03-31T03:13:03.784Z,22.9
2017-03-31T03:14:03.715Z,22.88
2017-03-31T03:15:03.656Z,22.98
2017-03-31T03:16:03.591Z,22.91
2017-03-31T03:17:03.534Z,22.91
2017-03-31T03:18:03.467Z,22.9
2017-03-31T03:19:03.099Z,22.98
2017-03-31T03:20:03.493Z,22.98
2017-03-31T03:21:02.975Z,22.91
2017-03-31T03:22:03.223Z,22.91
2017-03-31T03:23:03.159Z,22.93
2017-03-31T03:24:03.099Z,22.93
2017-03-31T03:25:03.035Z,22.94
2017-03-31T03:26:02.976Z,22.91
2017-03-31T03:27:02.914Z,22.85
2017-03-31T03:28:02.539Z,22.98
2017-03-31T03:29:02.788Z,22.93
2017-03-31T03:30:02.726Z,22.93
2017-03-31T03:31:02.665Z,22.91
2017-03-31T03:32:02.602Z,22.93
2017-03-31T03:33:02.542Z,22.96
2017-03-31T03:34:02.479Z,22.85
2017-03-31T03:35:02.423Z,22.87
2017-03-31T03:36:02.045Z,22.88
2017-03-31T03:37:02.294Z,22.94
2017-03-31T03:38:02.234Z,22.88
2017-03-31T03:39:01.858Z,22.94
2017-03-31T03:40:01.825Z,22.91
2017-03-31T03:41:02.043Z,22.94
2017-03-31T03:42:01.679Z,22.91
2017-03-31T03:43:01.614Z,22.91
2017-03-31T03:44:01.555Z,22.98
2017-03-31T03:45:01.802Z,22.9
2017-03-31T03:46:01.755Z,22.8
2017-03-31T03:47:01.678Z,22.93
2017-03-31T03:48:01.313Z,22.85
2017-03-31T03:49:01.247Z,22.91
2017-03-31T03:50:01.489Z,22.9
2017-03-31T03:51:01.122Z,22.93
2017-03-31T03:52:01.371Z,22.9
2017-03-31T03:53:01.003Z,22.93
2017-03-31T03:54:01.240Z,22.9
2017-03-31T03:55:01.190Z,22.98
2017-03-31T03:56:01.119Z,22.85
2017-03-31T03:57:01.063Z,22.93
2017-03-31T03:58:00.993Z,22.94
2017-03-31T03:59:00.950Z,22.94
2017-03-31T04:00:00.871Z,22.76
2017-03-31T04:01:00.813Z,22.96
2017-03-31T04:02:00.435Z,22.93
2017-03-31T04:03:00.688Z,22.88
2017-03-31T04:04:00.622Z,22.88
2017-03-31T04:05:00.650Z,22.88
2017-03-31T04:06:00.499Z,22.83
2017-03-31T04:07:00.129Z,22.9
2017-03-31T04:08:00.599Z,22.8
2017-03-31T04:09:00.331Z,22.88
2017-03-31T04:09:59.942Z,22.91
2017-03-31T04:10:59.879Z,22.78
2017-03-31T04:12:00.127Z,22.93
2017-03-31T04:13:00.065Z,22.83
2017-03-31T04:14:00.026Z,22.81
2017-03-31T04:14:59.942Z,22.91
2017-03-31T04:15:59.881Z,22.94
2017-03-31T04:16:59.816Z,22.8
2017-03-31T04:17:59.755Z,22.8
2017-03-31T04:18:59.742Z,22.91
2017-03-31T04:19:59.322Z,22.78
2017-03-31T04:20:59.260Z,22.83
2017-03-31T04:21:59.713Z,22.81
2017-03-31T04:22:59.450Z,22.8
2017-03-31T04:23:59.384Z,22.91
2017-03-31T04:24:59.325Z,22.8
2017-03-31T04:25:58.958Z,22.83
2017-03-31T04:26:59.200Z,22.81
2017-03-31T04:27:59.140Z,22.8
2017-03-31T04:28:58.767Z,22.84
2017-03-31T04:29:58.767Z,22.8
2017-03-31T04:30:58.953Z,22.81
2017-03-31T04:31:58.901Z,22.8
2017-03-31T04:32:58.827Z,22.8
2017-03-31T04:33:58.764Z,22.81
2017-03-31T04:34:58.703Z,22.8
2017-03-31T04:35:58.645Z,22.87
2017-03-31T04:36:58.590Z,22.81
2017-03-31T04:37:58.525Z,22.8
2017-03-31T04:38:58.471Z,22.81
2017-03-31T04:39:58.398Z,22.78
2017-03-31T04:40:58.336Z,22.76
2017-03-31T04:41:58.267Z,22.83
2017-03-31T04:42:58.298Z,22.9
2017-03-31T04:43:58.145Z,22.81
2017-03-31T04:44:58.086Z,22.83
2017-03-31T04:45:58.024Z,22.85
2017-03-31T04:46:57.964Z,22.9
2017-03-31T04:47:57.901Z,22.81
2017-03-31T04:48:57.834Z,22.78
2017-03-31T04:49:57.775Z,22.81
2017-03-31T04:50:57.713Z,22.81
2017-03-31T04:51:57.659Z,22.85
2017-03-31T04:52:57.601Z,22.8
2017-03-31T04:53:57.530Z,22.78
2017-03-31T04:54:57.466Z,22.81
2017-03-31T04:55:57.407Z,22.8
2017-03-31T04:56:57.344Z,22.88
2017-03-31T04:57:57.280Z,22.81
2017-03-31T04:58:57.219Z,22.81
2017-03-31T04:59:57.155Z,22.81
2017-03-31T05:00:57.096Z,22.84
2017-03-31T05:02:02.602Z,22.8
2017-03-31T05:02:56.972Z,22.81
2017-03-31T05:03:56.918Z,22.81
2017-03-31T05:04:56.845Z,22.9
2017-03-31T05:05:56.510Z,22.81
2017-03-31T05:06:56.723Z,22.81
2017-03-31T05:07:56.356Z,22.84
2017-03-31T05:08:56.606Z,22.87
2017-03-31T05:09:56.540Z,22.84
2017-03-31T05:10:56.476Z,22.78
2017-03-31T05:11:56.101Z,22.78
2017-03-31T05:12:56.050Z,22.81
2017-03-31T05:13:56.347Z,22.81
2017-03-31T05:14:56.225Z,22.75
2017-03-31T05:15:56.174Z,22.9
2017-03-31T05:16:56.104Z,22.76
2017-03-31T05:17:56.053Z,22.84
2017-03-31T05:18:55.978Z,22.8
2017-03-31T05:19:55.915Z,22.8
2017-03-31T05:20:55.545Z,22.8
2017-03-31T05:21:56.169Z,22.9
2017-03-31T05:22:55.732Z,22.81
2017-03-31T05:23:55.676Z,22.84
2017-03-31T05:24:55.608Z,22.84
2017-03-31T05:25:55.547Z,22.88
2017-03-31T05:26:55.482Z,22.78
2017-03-31T05:27:55.421Z,22.83
2017-03-31T05:28:55.357Z,22.83
2017-03-31T05:29:55.299Z,22.78
2017-03-31T05:30:55.240Z,22.81
2017-03-31T05:31:55.173Z,22.81
2017-03-31T05:32:55.479Z,22.83
2017-03-31T05:33:55.417Z,22.83
2017-03-31T05:34:55.361Z,22.78
2017-03-31T05:35:54.929Z,22.85
2017-03-31T05:36:54.868Z,22.81
2017-03-31T05:37:54.799Z,22.78
2017-03-31T05:38:54.739Z,22.81
2017-03-31T05:39:54.673Z,22.8
2017-03-31T05:40:54.612Z,22.81
2017-03-31T05:41:54.937Z,22.81
2017-03-31T05:42:54.180Z,22.8
2017-03-31T05:43:54.119Z,22.8
2017-03-31T05:44:54.364Z,22.83
2017-03-31T05:45:54.305Z,22.83
2017-03-31T05:46:54.246Z,22.83
2017-03-31T05:47:53.873Z,22.87
2017-03-31T05:48:54.121Z,22.8
2017-03-31T05:49:53.750Z,22.83
2017-03-31T05:50:53.685Z,22.83
2017-03-31T05:51:53.936Z,22.81
2017-03-31T05:52:53.562Z,22.8
2017-03-31T05:53:53.499Z,22.83
2017-03-31T05:54:53.746Z,22.8
2017-03-31T05:55:53.685Z,22.8
2017-03-31T05:56:53.623Z,22.76
2017-03-31T05:57:53.559Z,22.76
2017-03-31T05:58:53.497Z,22.81
2017-03-31T05:59:53.437Z,22.8
2017-03-31T06:00:53.375Z,22.84
2017-03-31T06:01:53.323Z,22.81
2017-03-31T06:02:53.254Z,22.83
2017-03-31T06:03:53.558Z,22.78
2017-03-31T06:04:53.129Z,22.81
2017-03-31T06:05:53.429Z,22.83
2017-03-31T06:06:53.003Z,22.81
2017-03-31T06:07:52.942Z,22.87
2017-03-31T06:08:52.568Z,22.87
2017-03-31T06:09:52.820Z,22.84
2017-03-31T06:10:52.752Z,22.85
2017-03-31T06:11:52.695Z,22.8
2017-03-31T06:12:52.630Z,22.81
2017-03-31T06:13:52.570Z,22.81
2017-03-31T06:14:52.885Z,22.78
2017-03-31T06:15:52.443Z,22.81
2017-03-31T06:16:52.383Z,22.84
2017-03-31T06:17:52.323Z,22.87
2017-03-31T06:18:52.297Z,22.88
2017-03-31T06:19:51.884Z,22.81
2017-03-31T06:20:52.143Z,22.83
2017-03-31T06:21:51.768Z,22.83
2017-03-31T06:22:52.396Z,22.81
2017-03-31T06:23:51.950Z,22.8
2017-03-31T06:24:51.578Z,22.84
2017-03-31T06:25:51.824Z,22.83
2017-03-31T06:26:51.769Z,22.83
2017-03-31T06:27:51.698Z,22.8
2017-03-31T06:28:51.340Z,22.81
2017-03-31T06:29:51.581Z,22.84
2017-03-31T06:30:51.867Z,22.85
2017-03-31T06:31:51.554Z,22.84
2017-03-31T06:32:51.567Z,22.83
2017-03-31T06:33:51.338Z,22.81
2017-03-31T06:34:51.290Z,22.81
2017-03-31T06:35:51.208Z,22.84
2017-03-31T06:36:51.151Z,22.83
2017-03-31T06:37:50.769Z,22.78
2017-03-31T06:38:51.020Z,22.75
2017-03-31T06:39:50.667Z,22.81
2017-03-31T06:40:50.899Z,22.83
2017-03-31T06:41:50.871Z,22.9
2017-03-31T06:42:50.456Z,22.93
2017-03-31T06:43:50.708Z,22.93
2017-03-31T06:44:50.660Z,22.84
2017-03-31T06:45:50.583Z,22.8
2017-03-31T06:46:50.269Z,22.8
2017-03-31T06:47:50.852Z,22.8
2017-03-31T06:48:50.094Z,22.81
2017-03-31T06:49:50.339Z,22.84
2017-03-31T06:50:50.273Z,22.78
2017-03-31T06:51:50.210Z,22.8
2017-03-31T06:52:50.150Z,22.9
2017-03-31T06:53:49.776Z,22.84
2017-03-31T06:54:50.026Z,22.81
2017-03-31T06:55:49.965Z,22.83
2017-03-31T06:56:49.904Z,22.9
2017-03-31T06:57:49.838Z,22.78
2017-03-31T06:58:49.777Z,22.83
2017-03-31T06:59:49.716Z,22.8
2017-03-31T07:00:49.653Z,22.88
2017-03-31T07:01:49.592Z,22.8
2017-03-31T07:02:49.539Z,22.87
2017-03-31T07:03:49.471Z,22.93
2017-03-31T07:04:49.409Z,22.9
2017-03-31T07:05:49.345Z,22.9
2017-03-31T07:06:49.281Z,22.91
2017-03-31T07:07:49.233Z,22.91
2017-03-31T07:08:49.159Z,22.84
2017-03-31T07:09:49.098Z,22.87
2017-03-31T07:10:48.725Z,22.94
2017-03-31T07:11:48.973Z,22.93
2017-03-31T07:12:48.599Z,22.9
2017-03-31T07:13:49.071Z,23
2017-03-31T07:14:48.787Z,22.9
2017-03-31T07:15:48.414Z,22.94
2017-03-31T07:16:48.671Z,22.94
2017-03-31T07:17:48.602Z,22.88
2017-03-31T07:18:48.327Z,23
2017-03-31T07:19:48.479Z,22.93
2017-03-31T07:20:48.419Z,22.98
2017-03-31T07:21:48.046Z,22.98
2017-03-31T07:22:47.982Z,23.03
2017-03-31T07:23:48.232Z,22.99
2017-03-31T07:24:48.173Z,23.02
2017-03-31T07:25:48.104Z,23.02
2017-03-31T07:26:47.735Z,22.99
2017-03-31T07:27:47.674Z,23
2017-03-31T07:28:47.922Z,23.09
2017-03-31T07:29:47.555Z,23.02
2017-03-31T07:30:47.802Z,23
2017-03-31T07:31:47.770Z,23.03
2017-03-31T07:32:47.675Z,23.03
2017-03-31T07:33:47.612Z,23.02
2017-03-31T07:34:47.240Z,23.05
2017-03-31T07:35:47.491Z,23.02
2017-03-31T07:36:47.119Z,23.05
2017-03-31T07:37:47.368Z,23
2017-03-31T07:38:47.307Z,23.1
2017-03-31T07:39:47.247Z,23.08
2017-03-31T07:40:47.182Z,23.05
2017-03-31T07:41:46.829Z,23.12
2017-03-31T07:42:47.162Z,23.08
2017-03-31T07:43:47.138Z,23.13
2017-03-31T07:44:46.965Z,23.08
2017-03-31T07:45:47.157Z,23.08
2017-03-31T07:46:46.928Z,23.09
2017-03-31T07:47:46.749Z,23.08
2017-03-31T07:48:46.687Z,23.06
2017-03-31T07:49:46.625Z,23.12
2017-03-31T07:50:46.563Z,23.1
2017-03-31T07:51:46.500Z,23.1
2017-03-31T07:52:46.438Z,23.13
2017-03-31T07:53:46.377Z,23.12
2017-03-31T07:54:46.315Z,23.15
2017-03-31T07:55:46.276Z,23.13
2017-03-31T07:56:45.883Z,23.13
2017-03-31T07:57:46.127Z,23.12
2017-03-31T07:58:45.765Z,23.18
2017-03-31T07:59:46.007Z,23.15
2017-03-31T08:00:45.969Z,23.12
2017-03-31T08:01:45.573Z,23.12
2017-03-31T08:02:45.825Z,23.21
2017-03-31T08:03:45.761Z,23.12
2017-03-31T08:04:45.699Z,23.08
2017-03-31T08:05:45.637Z,23.05
2017-03-31T08:06:45.579Z,23.05
2017-03-31T08:07:45.538Z,22.99
2017-03-31T08:08:45.473Z,23.09
2017-03-31T08:09:45.388Z,23.05
2017-03-31T08:10:45.352Z,23.02
2017-03-31T08:11:44.971Z,23.05
2017-03-31T08:12:45.592Z,23.03
2017-03-31T08:13:45.174Z,23.05
2017-03-31T08:14:44.793Z,23.03
2017-03-31T08:15:45.034Z,23.06
2017-03-31T08:16:44.971Z,23.05
2017-03-31T08:17:44.589Z,23.02
2017-03-31T08:18:45.072Z,23.03
2017-03-31T08:19:44.471Z,23.03
2017-03-31T08:20:44.436Z,23
2017-03-31T08:21:44.377Z,23.03
2017-03-31T08:22:44.591Z,23.05
2017-03-31T08:23:43.908Z,23.02
2017-03-31T08:24:44.176Z,23.02
2017-03-31T08:25:44.424Z,23.03
2017-03-31T08:26:44.363Z,23.02
2017-03-31T08:27:44.276Z,23.06
2017-03-31T08:28:44.215Z,23.02
2017-03-31T08:29:43.846Z,23.03
2017-03-31T08:30:43.804Z,23.03
2017-03-31T08:31:43.738Z,23.02
2017-03-31T08:32:43.693Z,22.99
2017-03-31T08:33:43.912Z,23.02
2017-03-31T08:34:43.861Z,23.02
2017-03-31T08:35:43.797Z,23.02
2017-03-31T08:36:43.733Z,23.03
2017-03-31T08:37:43.682Z,22.98
2017-03-31T08:38:43.614Z,22.99
2017-03-31T08:39:43.538Z,23.03
2017-03-31T08:40:43.503Z,23.06
2017-03-31T08:41:43.449Z,23
2017-03-31T08:42:43.367Z,23.02
2017-03-31T08:43:42.991Z,23.05
2017-03-31T08:44:43.236Z,23.02
2017-03-31T08:45:43.179Z,23
2017-03-31T08:46:42.811Z,23.03
2017-03-31T08:47:43.051Z,23
2017-03-31T08:48:43.011Z,23.03
2017-03-31T08:49:42.937Z,23.05
2017-03-31T08:50:42.868Z,23.06
2017-03-31T08:51:42.809Z,23.02
2017-03-31T08:52:42.571Z,23.03
2017-03-31T08:53:42.371Z,23.02
2017-03-31T08:54:42.317Z,23
2017-03-31T08:55:42.264Z,23.1
2017-03-31T08:56:42.179Z,23.02
2017-03-31T08:57:42.425Z,23.03
2017-03-31T08:58:42.365Z,23.02
2017-03-31T08:59:41.993Z,23.02
2017-03-31T09:00:42.246Z,23.03
2017-03-31T09:01:42.182Z,23.08
2017-03-31T09:02:42.119Z,23.03
2017-03-31T09:03:42.055Z,23
2017-03-31T09:04:41.995Z,23.05
2017-03-31T09:05:41.933Z,23.02
2017-03-31T09:06:41.557Z,23.03
2017-03-31T09:07:41.500Z,23.03
2017-03-31T09:08:41.749Z,23.05
2017-03-31T09:09:41.689Z,22.99
2017-03-31T09:10:41.622Z,23.03
2017-03-31T09:11:41.570Z,22.99
2017-03-31T09:12:41.496Z,23.03
2017-03-31T09:13:41.436Z,23.06
2017-03-31T09:14:41.394Z,23.02
2017-03-31T09:15:41.695Z,23.06
2017-03-31T09:16:41.257Z,23.02
2017-03-31T09:17:41.189Z,23.05
2017-03-31T09:18:41.525Z,23.05
2017-03-31T09:19:41.066Z,23.06
2017-03-31T09:20:41.007Z,23.02
2017-03-31T09:21:40.946Z,23.02
2017-03-31T09:22:40.881Z,22.99
2017-03-31T09:23:40.820Z,23.02
2017-03-31T09:24:40.763Z,23.05
2017-03-31T09:25:40.701Z,22.99
2017-03-31T09:26:40.640Z,23.02
2017-03-31T09:27:40.574Z,23.03
2017-03-31T09:28:40.510Z,23.02
2017-03-31T09:29:40.478Z,23
2017-03-31T09:30:40.386Z,23
2017-03-31T09:31:40.017Z,23
2017-03-31T09:32:40.268Z,23.03
2017-03-31T09:33:40.203Z,23.06
2017-03-31T09:34:41.338Z,23.02
2017-03-31T09:35:40.080Z,23.08
2017-03-31T09:36:40.021Z,23.08
2017-03-31T09:37:39.962Z,23.06
2017-03-31T09:38:39.895Z,23.05
2017-03-31T09:39:39.834Z,23.1
2017-03-31T09:40:40.021Z,23.1
2017-03-31T09:41:39.709Z,23.12
2017-03-31T09:42:39.652Z,23.08
2017-03-31T09:43:39.594Z,23.17
2017-03-31T09:44:39.523Z,23.1
2017-03-31T09:45:39.773Z,23.13
2017-03-31T09:46:39.090Z,23.13
2017-03-31T09:47:39.338Z,23.13
2017-03-31T09:48:39.275Z,23.13
2017-03-31T09:49:39.588Z,23.1
2017-03-31T09:50:39.235Z,23.13
2017-03-31T09:51:39.091Z,23.15
2017-03-31T09:52:39.031Z,23.17
2017-03-31T09:53:38.973Z,23.24
2017-03-31T09:54:38.904Z,23.21
2017-03-31T09:55:38.846Z,23.15
2017-03-31T09:56:38.472Z,23.2
2017-03-31T09:57:38.723Z,23.24
2017-03-31T09:58:38.659Z,23.21
2017-03-31T09:59:38.286Z,23.2
2017-03-31T10:00:38.543Z,23.23
2017-03-31T10:01:38.483Z,23.21
2017-03-31T10:02:47.765Z,23.25
2017-03-31T10:03:38.350Z,23.23
2017-03-31T10:04:37.990Z,23.2
2017-03-31T10:05:38.226Z,23.23
2017-03-31T10:06:38.164Z,23.24
2017-03-31T10:07:38.125Z,23.28
2017-03-31T10:08:38.162Z,23.21
2017-03-31T10:09:38.084Z,23.23
2017-03-31T10:10:37.953Z,23.21
2017-03-31T10:11:37.866Z,23.31
2017-03-31T10:12:37.495Z,23.25
2017-03-31T10:13:37.732Z,23.24
2017-03-31T10:14:37.675Z,23.27
2017-03-31T10:15:37.615Z,23.27
2017-03-31T10:16:37.551Z,23.36
2017-03-31T10:17:37.488Z,23.34
2017-03-31T10:18:37.425Z,23.36
2017-03-31T10:19:37.380Z,23.28
2017-03-31T10:20:37.604Z,23.31
2017-03-31T10:21:37.244Z,23.28
2017-03-31T10:22:37.179Z,23.31
2017-03-31T10:23:37.117Z,23.43
2017-03-31T10:24:37.056Z,23.41
2017-03-31T10:25:37.128Z,23.24
2017-03-31T10:26:36.994Z,23.47
2017-03-31T10:27:36.875Z,23.43
2017-03-31T10:28:36.504Z,23.32
2017-03-31T10:29:36.451Z,23.37
2017-03-31T10:30:36.702Z,23.37
2017-03-31T10:31:36.624Z,23.25
2017-03-31T10:32:36.563Z,23.28
2017-03-31T10:33:36.503Z,23.36
2017-03-31T10:34:36.442Z,23.36
2017-03-31T10:35:36.385Z,23.39
2017-03-31T10:36:36.323Z,23.31
2017-03-31T10:37:36.266Z,23.25
2017-03-31T10:38:36.198Z,23.24
2017-03-31T10:39:36.143Z,23.27
2017-03-31T10:40:36.147Z,23.28
2017-03-31T10:41:36.013Z,23.28
2017-03-31T10:42:35.958Z,23.34
2017-03-31T10:43:35.887Z,23.28
2017-03-31T10:44:35.826Z,23.28
2017-03-31T10:45:35.768Z,23.31
2017-03-31T10:46:35.394Z,23.27
2017-03-31T10:47:35.644Z,23.36
2017-03-31T10:48:35.581Z,23.24
2017-03-31T10:49:35.529Z,23.24
2017-03-31T10:50:35.152Z,23.28
2017-03-31T10:51:35.397Z,23.21
2017-03-31T10:52:35.339Z,23.23
2017-03-31T10:53:35.275Z,23.25
2017-03-31T10:54:34.931Z,23.23
2017-03-31T10:55:35.157Z,23.25
2017-03-31T10:56:35.107Z,23.27
2017-03-31T10:57:35.024Z,23.21
2017-03-31T10:58:34.968Z,23.24
2017-03-31T10:59:34.593Z,23.24
2017-03-31T11:00:34.842Z,23.23
2017-03-31T11:01:35.114Z,23.21
2017-03-31T11:02:34.722Z,23.28
2017-03-31T11:03:34.662Z,23.23
2017-03-31T11:04:34.594Z,23.23
2017-03-31T11:05:34.942Z,23.21
2017-03-31T11:06:34.512Z,23.2
2017-03-31T11:07:34.414Z,23.2
2017-03-31T11:08:34.350Z,23.2
2017-03-31T11:09:34.296Z,23.24
2017-03-31T11:10:34.244Z,23.27
2017-03-31T11:11:40.442Z,23.23
2017-03-31T11:12:33.738Z,23.25
2017-03-31T11:13:33.988Z,23.25
2017-03-31T11:14:33.927Z,23.24
2017-03-31T11:15:33.559Z,23.21
2017-03-31T11:16:33.836Z,23.23
2017-03-31T11:17:33.439Z,23.17
2017-03-31T11:18:33.803Z,23.15
2017-03-31T11:19:33.841Z,23.24
2017-03-31T11:20:33.273Z,23.15
2017-03-31T11:21:33.500Z,23.15
2017-03-31T11:22:33.454Z,23.15
2017-03-31T11:23:33.373Z,23.13
2017-03-31T11:24:33.308Z,23.17
2017-03-31T11:25:33.262Z,23.15
2017-03-31T11:26:33.200Z,23.13
2017-03-31T11:27:33.122Z,23.13
2017-03-31T11:28:32.771Z,23.12
2017-03-31T11:29:33.013Z,23.12
2017-03-31T11:30:32.967Z,23.13
2017-03-31T11:31:32.882Z,23.17
2017-03-31T11:32:32.524Z,23.17
2017-03-31T11:33:32.770Z,23.12
2017-03-31T11:34:32.383Z,23.13
2017-03-31T11:35:32.596Z,23.13
2017-03-31T11:36:32.596Z,23.09
2017-03-31T11:37:32.204Z,23.09
2017-03-31T11:38:32.445Z,23.12
2017-03-31T11:39:32.385Z,23.12
2017-03-31T11:40:32.688Z,23.1
2017-03-31T11:41:32.330Z,23.1
2017-03-31T11:42:32.202Z,23.15
2017-03-31T11:43:32.153Z,23.17
2017-03-31T11:44:32.131Z,23.13
2017-03-31T11:45:32.268Z,23.09
2017-03-31T11:46:31.938Z,23.15
2017-03-31T11:47:31.895Z,23.1
2017-03-31T11:48:31.823Z,23.13
2017-03-31T11:49:31.781Z,23.12
2017-03-31T11:50:31.715Z,23.09
2017-03-31T11:51:31.662Z,23.1
2017-03-31T11:52:31.602Z,23.12
2017-03-31T11:53:31.527Z,23.12
2017-03-31T11:54:31.174Z,23.08
2017-03-31T11:55:31.093Z,23.09
2017-03-31T11:56:31.563Z,23.09
2017-03-31T11:57:31.000Z,23.09
2017-03-31T11:58:31.019Z,23.12
2017-03-31T11:59:30.538Z,23.09
2017-03-31T12:00:31.117Z,23.09
2017-03-31T12:01:30.723Z,23.09
2017-03-31T12:02:30.709Z,23.12
2017-03-31T12:03:30.606Z,23.08
2017-03-31T12:04:30.844Z,23.09
2017-03-31T12:05:30.865Z,23.09
2017-03-31T12:06:30.401Z,23.12
2017-03-31T12:07:30.666Z,23.13
2017-03-31T12:08:30.593Z,23.09
2017-03-31T12:09:30.232Z,23.15
2017-03-31T12:10:30.417Z,23.15
2017-03-31T12:11:30.410Z,23.13
2017-03-31T12:12:30.375Z,23.13
2017-03-31T12:13:30.287Z,23.1
2017-03-31T12:14:30.207Z,23.1
2017-03-31T12:15:30.177Z,23.15
2017-03-31T12:16:30.087Z,23.12
2017-03-31T12:17:29.722Z,23.1
2017-03-31T12:18:29.988Z,23.06
2017-03-31T12:19:29.899Z,23.12
2017-03-31T12:20:29.855Z,23.09
2017-03-31T12:21:29.815Z,23.08
2017-03-31T12:22:30.123Z,23.18
2017-03-31T12:23:29.684Z,23.15
2017-03-31T12:24:29.702Z,23.1
2017-03-31T12:25:29.745Z,23.09
2017-03-31T12:26:29.489Z,23.15
2017-03-31T12:27:29.421Z,23.17
2017-03-31T12:28:29.385Z,23.15
2017-03-31T12:29:29.295Z,23.13
2017-03-31T12:30:28.951Z,23.2
2017-03-31T12:31:29.703Z,23.12
2017-03-31T12:32:29.474Z,23.15
2017-03-31T12:33:29.056Z,23.12
2017-03-31T12:34:29.006Z,23.17
2017-03-31T12:35:28.623Z,23.06
2017-03-31T12:36:29.246Z,23.13
2017-03-31T12:37:28.797Z,23.09
2017-03-31T12:38:28.764Z,23.1
2017-03-31T12:39:28.696Z,23.08
2017-03-31T12:40:28.624Z,23.12
2017-03-31T12:41:28.559Z,23.12
2017-03-31T12:42:28.504Z,23.09
2017-03-31T12:43:28.431Z,23.09
2017-03-31T12:44:28.571Z,23.1
2017-03-31T12:45:28.324Z,23.1
2017-03-31T12:46:27.963Z,23.09
2017-03-31T12:47:28.220Z,23.12
2017-03-31T12:48:28.131Z,23.15
2017-03-31T12:49:28.441Z,23.12
2017-03-31T12:50:28.318Z,23.12
2017-03-31T12:51:27.645Z,23.12
2017-03-31T12:52:27.890Z,23.15
2017-03-31T12:53:27.889Z,23.13
2017-03-31T12:54:27.740Z,23.18
2017-03-31T12:55:27.851Z,23.13
2017-03-31T12:56:27.623Z,23.1
2017-03-31T12:57:27.598Z,23.15
2017-03-31T12:58:26.899Z,23.18